Time;durP1;ratioP1;P1;durP2;ratioP2;P2;SDS_P1;SDS_P2;PMS_P1;PMS_P2;Temp;Humidity;BMP_temperature;BMP_pressure;BME280_temperature;BME280_humidity;BME280_pressure;Samples;Min_cycle;Max_cycle;Signal;HPM_P1;HPM_P2
2021/12/06 00:01:31;;;;;;;0.50;0.50;;;;;;;;;;5052638;28;20064;-82
2021/12/06 00:04:01;;;;;;;0.77;0.55;;;;;;;;;;5052521;28;20063;-82
2021/12/06 00:06:30;;;;;;;1.63;0.60;;;;;;;;;;5035190;28;20128;-88
2021/12/06 00:08:58;;;;;;;1.02;0.47;;;;;;;;;;5034571;28;20492;-82
2021/12/06 00:11:27;;;;;;;2.72;0.65;;;;;;;;;;5052686;28;20514;-88
2021/12/06 00:13:57;;;;;;;0.80;0.60;;;;;;;;;;5056158;28;20037;-85
2021/12/06 00:16:25;;;;;;;0.60;0.47;;;;;;;;;;5038271;28;20151;-85
2021/12/06 00:18:52;;;;;;;1.98;0.75;;;;;;;;;;5038578;28;20040;-80
2021/12/06 00:21:22;;;;;;;3.08;0.70;;;;;;;;;;5038864;28;20068;-82
2021/12/06 00:23:50;;;;;;;0.45;0.45;;;;;;;;;;5056021;28;20064;-81
2021/12/06 00:26:18;;;;;;;0.65;0.65;;;;;;;;;;5022148;28;20051;-89
2021/12/06 00:28:46;;;;;;;0.47;0.47;;;;;;;;;;5038180;28;20047;-82
2021/12/06 00:31:21;;;;;;;0.85;0.60;;;;;;;;;;5022184;28;20128;-89
2021/12/06 00:33:59;;;;;;;1.38;0.90;;;;;;;;;;5055979;28;20045;-85
2021/12/06 00:36:32;;;;;;;2.22;1.30;;;;;;;;;;5056221;28;20040;-81
2021/12/06 00:39:00;;;;;;;2.80;1.40;;;;;;;;;;5038016;28;20037;-84
2021/12/06 00:41:28;;;;;;;1.77;1.50;;;;;;;;;;5038193;28;20045;-79
2021/12/06 00:43:55;;;;;;;2.25;1.60;;;;;;;;;;5021597;28;20055;-79
2021/12/06 00:46:24;;;;;;;1.67;1.58;;;;;;;;;;5021167;28;20041;-80
2021/12/06 00:48:52;;;;;;;2.38;1.90;;;;;;;;;;5037487;28;20041;-83
2021/12/06 00:51:23;;;;;;;2.88;1.48;;;;;;;;;;5021390;28;20037;-80
2021/12/06 00:53:50;;;;;;;2.88;1.80;;;;;;;;;;5037398;28;20504;-87
2021/12/06 00:56:21;;;;;;;2.85;1.90;;;;;;;;;;5037343;28;20456;-83
2021/12/06 00:58:49;;;;;;;2.67;1.38;;;;;;;;;;5037776;28;20045;-80
2021/12/06 01:01:16;;;;;;;2.72;1.60;;;;;;;;;;5021356;28;20048;-83
2021/12/06 01:03:45;;;;;;;2.25;1.15;;;;;;;;;;5037485;28;20523;-83
2021/12/06 01:06:13;;;;;;;1.55;1.30;;;;;;;;;;5037608;28;20496;-79
2021/12/06 01:08:41;;;;;;;4.45;1.27;;;;;;;;;;5020840;28;20041;-83
2021/12/06 01:11:09;;;;;;;2.92;1.38;;;;;;;;;;5054951;28;20037;-83
2021/12/06 01:13:38;;;;;;;1.77;1.35;;;;;;;;;;5021089;28;20470;-86
2021/12/06 01:16:07;;;;;;;2.40;1.40;;;;;;;;;;5020729;28;20511;-80
2021/12/06 01:18:36;;;;;;;3.25;1.30;;;;;;;;;;5020851;28;20052;-82
2021/12/06 01:21:16;;;;;;;1.55;1.15;;;;;;;;;;5021079;28;20072;-80
2021/12/06 01:23:54;;;;;;;2.35;1.20;;;;;;;;;;5037038;28;20069;-83
2021/12/06 01:29:13;;;;;;;2.58;1.15;;;;;;;;;;5036954;28;20451;-86
2021/12/06 01:31:52;;;;;;;3.95;1.23;;;;;;;;;;5020399;28;20041;-86
2021/12/06 01:39:48;;;;;;;2.92;1.35;;;;;;;;;;5036798;28;20045;-81
2021/12/06 01:42:19;;;;;;;2.38;1.70;;;;;;;;;;5037660;28;20048;-89
2021/12/06 01:44:48;;;;;;;1.90;1.52;;;;;;;;;;5020538;28;20045;-85
2021/12/06 01:47:32;;;;;;;5.47;1.20;;;;;;;;;;5034447;28;20037;-88
2021/12/06 01:50:28;;;;;;;3.35;1.10;;;;;;;;;;5034073;28;20041;-84
2021/12/06 01:52:59;;;;;;;1.75;1.10;;;;;;;;;;5033308;28;20054;-88
2021/12/06 01:55:31;;;;;;;1.65;0.98;;;;;;;;;;5036390;28;20095;-81
2021/12/06 01:58:04;;;;;;;0.63;0.63;;;;;;;;;;5036058;28;20408;-88
2021/12/06 02:00:44;;;;;;;1.50;1.00;;;;;;;;;;5035889;28;20049;-82
2021/12/06 02:03:17;;;;;;;2.30;0.93;;;;;;;;;;5036104;28;20045;-81
2021/12/06 02:05:49;;;;;;;3.05;1.27;;;;;;;;;;5004324;28;20139;-81
2021/12/06 02:08:21;;;;;;;3.20;1.42;;;;;;;;;;5036941;28;20516;-82
2021/12/06 02:10:49;;;;;;;1.50;1.20;;;;;;;;;;5035890;28;20069;-81
2021/12/06 02:13:22;;;;;;;3.80;1.23;;;;;;;;;;5019985;28;20048;-88
2021/12/06 02:15:53;;;;;;;4.18;1.45;;;;;;;;;;5053594;28;20045;-81
2021/12/06 02:21:37;;;;;;;3.03;1.60;;;;;;;;;;5021236;28;20099;-84
2021/12/06 02:24:09;;;;;;;2.45;1.02;;;;;;;;;;5011633;28;20045;-81
2021/12/06 02:26:43;;;;;;;3.95;0.73;;;;;;;;;;5020196;28;20045;-88
2021/12/06 02:29:10;;;;;;;0.40;0.40;;;;;;;;;;5035801;28;20500;-81
2021/12/06 02:31:38;;;;;;;2.85;0.75;;;;;;;;;;5003066;28;20043;-81
2021/12/06 02:34:06;;;;;;;1.00;0.60;;;;;;;;;;5018993;28;20056;-89
2021/12/06 02:36:34;;;;;;;2.53;0.63;;;;;;;;;;5019262;28;20045;-81
2021/12/06 02:39:08;;;;;;;1.75;0.70;;;;;;;;;;5053119;28;20040;-81
2021/12/06 02:41:38;;;;;;;0.57;0.52;;;;;;;;;;5035957;28;20049;-88
2021/12/06 02:44:10;;;;;;;2.38;0.52;;;;;;;;;;5019522;28;20415;-82
2021/12/06 02:46:38;;;;;;;0.45;0.43;;;;;;;;;;5035167;28;20076;-81
2021/12/06 02:49:11;;;;;;;2.75;0.60;;;;;;;;;;5002958;28;20381;-81
2021/12/06 02:51:38;;;;;;;0.43;0.43;;;;;;;;;;5035606;28;20118;-82
2021/12/06 02:54:10;;;;;;;2.92;0.47;;;;;;;;;;5035264;28;20053;-81
2021/12/06 02:59:20;;;;;;;1.58;0.52;;;;;;;;;;5020785;28;20071;-88
2021/12/06 03:01:52;;;;;;;2.83;0.75;;;;;;;;;;5003252;28;20132;-88
2021/12/06 03:04:20;;;;;;;3.47;0.80;;;;;;;;;;5035707;28;20074;-84
2021/12/06 03:06:54;;;;;;;1.85;0.50;;;;;;;;;;5002736;28;20526;-85
2021/12/06 03:09:26;;;;;;;0.55;0.55;;;;;;;;;;5052896;28;20381;-82
2021/12/06 03:12:14;;;;;;;2.20;0.50;;;;;;;;;;5034984;28;20036;-82
2021/12/06 03:14:47;;;;;;;1.20;0.60;;;;;;;;;;5034771;28;20087;-81
2021/12/06 03:17:19;;;;;;;1.17;0.43;;;;;;;;;;5035011;28;20045;-81
2021/12/06 03:19:47;;;;;;;0.57;0.30;;;;;;;;;;5035075;28;20045;-87
2021/12/06 03:22:16;;;;;;;0.45;0.45;;;;;;;;;;5034745;28;20041;-81
2021/12/06 03:24:51;;;;;;;1.10;0.40;;;;;;;;;;5036122;28;20072;-81
2021/12/06 03:27:25;;;;;;;0.45;0.40;;;;;;;;;;5034899;28;20045;-81
2021/12/06 03:29:56;;;;;;;2.72;0.52;;;;;;;;;;5034935;28;20091;-87
2021/12/06 03:32:25;;;;;;;1.70;0.65;;;;;;;;;;5018685;28;20522;-85
2021/12/06 03:34:54;;;;;;;1.48;0.70;;;;;;;;;;5018546;28;20103;-81
2021/12/06 03:37:21;;;;;;;2.47;0.60;;;;;;;;;;5035139;28;20397;-81
2021/12/06 03:39:53;;;;;;;1.95;0.68;;;;;;;;;;5035005;28;20041;-81
2021/12/06 03:42:26;;;;;;;1.77;0.55;;;;;;;;;;5035168;28;20551;-79
2021/12/06 03:44:54;;;;;;;0.80;0.70;;;;;;;;;;5035171;28;20103;-85
2021/12/06 03:47:27;;;;;;;6.70;0.85;;;;;;;;;;5037145;28;20510;-80
2021/12/06 03:49:55;;;;;;;1.70;0.60;;;;;;;;;;5022687;28;20044;-82
2021/12/06 03:52:23;;;;;;;3.10;1.23;;;;;;;;;;5022810;28;20045;-85
2021/12/06 03:54:51;;;;;;;2.22;0.65;;;;;;;;;;5038765;28;20376;-79
2021/12/06 03:57:20;;;;;;;5.95;1.38;;;;;;;;;;5038800;28;20048;-86
2021/12/06 03:59:51;;;;;;;2.53;0.80;;;;;;;;;;5038284;28;20052;-85
2021/12/06 04:02:20;;;;;;;2.28;0.60;;;;;;;;;;5038209;28;20049;-79
2021/12/06 04:04:48;;;;;;;2.33;0.70;;;;;;;;;;5038808;28;20037;-80
2021/12/06 04:07:15;;;;;;;2.28;0.52;;;;;;;;;;5038484;28;20041;-86
2021/12/06 04:09:43;;;;;;;2.10;0.68;;;;;;;;;;5056115;28;20476;-83
2021/12/06 04:12:11;;;;;;;2.90;0.60;;;;;;;;;;5038429;28;20041;-81
2021/12/06 04:14:41;;;;;;;2.15;0.80;;;;;;;;;;5021915;28;20045;-82
2021/12/06 04:17:09;;;;;;;0.50;0.38;;;;;;;;;;5038327;28;20047;-86
2021/12/06 04:19:38;;;;;;;1.00;0.70;;;;;;;;;;5038147;28;20067;-85
2021/12/06 04:22:10;;;;;;;4.72;0.90;;;;;;;;;;5038197;28;20053;-79
2021/12/06 04:24:39;;;;;;;3.55;0.90;;;;;;;;;;5021422;28;20056;-83
2021/12/06 04:27:15;;;;;;;3.03;0.82;;;;;;;;;;5038475;28;20405;-83
2021/12/06 04:29:49;;;;;;;2.85;1.20;;;;;;;;;;5037971;28;20044;-79
2021/12/06 04:32:20;;;;;;;10.20;2.22;;;;;;;;;;5038538;28;20037;-83
2021/12/06 04:34:48;;;;;;;5.20;1.73;;;;;;;;;;5037527;28;20412;-80
2021/12/06 04:37:19;;;;;;;2.72;1.38;;;;;;;;;;5038164;28;20381;-81
2021/12/06 04:39:48;;;;;;;3.83;1.27;;;;;;;;;;5038193;28;20144;-81
2021/12/06 04:42:20;;;;;;;6.18;1.50;;;;;;;;;;5038159;28;20033;-81
2021/12/06 04:44:49;;;;;;;4.35;1.42;;;;;;;;;;5037733;28;20049;-85
2021/12/06 04:47:20;;;;;;;3.67;1.63;;;;;;;;;;5005314;28;20052;-82
2021/12/06 04:49:49;;;;;;;3.10;1.23;;;;;;;;;;5037792;28;20045;-87
2021/12/06 04:52:18;;;;;;;3.53;0.90;;;;;;;;;;5037763;28;20043;-81
2021/12/06 04:54:53;;;;;;;0.98;0.60;;;;;;;;;;5037138;28;20051;-85
2021/12/06 04:57:34;;;;;;;0.98;0.55;;;;;;;;;;5055133;28;20125;-84
2021/12/06 05:00:25;;;;;;;1.58;1.08;;;;;;;;;;5037563;28;20037;-81
2021/12/06 05:02:53;;;;;;;1.88;1.02;;;;;;;;;;5055443;28;20045;-87
2021/12/06 05:05:29;;;;;;;3.30;1.10;;;;;;;;;;5040028;28;20251;-87
2021/12/06 05:08:20;;;;;;;4.03;1.10;;;;;;;;;;5062703;28;20167;-86
2021/12/06 05:10:55;;;;;;;4.45;0.90;;;;;;;;;;5048495;28;20111;-85
2021/12/06 05:13:25;;;;;;;3.42;1.55;;;;;;;;;;5057478;28;20040;-87
2021/12/06 05:15:53;;;;;;;2.83;1.20;;;;;;;;;;5057092;28;20106;-85
2021/12/06 05:18:21;;;;;;;4.68;1.08;;;;;;;;;;5024478;28;20132;-82
2021/12/06 05:20:50;;;;;;;7.80;1.50;;;;;;;;;;5040433;28;20048;-85
2021/12/06 05:23:20;;;;;;;1.90;0.88;;;;;;;;;;5024409;28;20044;-85
2021/12/06 05:25:48;;;;;;;4.88;1.08;;;;;;;;;;5056834;28;20143;-79
2021/12/06 05:28:17;;;;;;;2.90;0.88;;;;;;;;;;5056770;28;20071;-79
2021/12/06 05:30:48;;;;;;;4.60;0.90;;;;;;;;;;5056848;28;20449;-83
2021/12/06 05:33:28;;;;;;;0.60;0.52;;;;;;;;;;5056737;28;20048;-85
2021/12/06 05:35:58;;;;;;;2.97;1.50;;;;;;;;;;5056495;28;20071;-80
2021/12/06 05:38:27;;;;;;;1.88;1.20;;;;;;;;;;5040292;28;20105;-79
2021/12/06 05:40:56;;;;;;;3.40;0.93;;;;;;;;;;5073583;28;20131;-82
2021/12/06 05:43:24;;;;;;;5.03;0.98;;;;;;;;;;5074218;28;20411;-86
2021/12/06 05:45:56;;;;;;;1.70;0.55;;;;;;;;;;5074279;28;20075;-82
2021/12/06 05:48:23;;;;;;;1.55;0.60;;;;;;;;;;5073926;28;20215;-79
2021/12/06 05:50:55;;;;;;;1.27;1.05;;;;;;;;;;5056173;28;20131;-85
2021/12/06 05:53:22;;;;;;;2.35;0.60;;;;;;;;;;5061045;28;20097;-83
2021/12/06 05:55:50;;;;;;;2.13;0.80;;;;;;;;;;5040053;28;20044;-82
2021/12/06 05:58:19;;;;;;;0.73;0.60;;;;;;;;;;5061585;28;20071;-81
2021/12/06 06:00:48;;;;;;;1.27;0.90;;;;;;;;;;5062696;28;20450;-86
2021/12/06 06:03:16;;;;;;;0.90;0.77;;;;;;;;;;5056045;28;20389;-79
2021/12/06 06:05:45;;;;;;;4.88;1.30;;;;;;;;;;5040007;28;20138;-82
2021/12/06 06:08:13;;;;;;;5.68;2.00;;;;;;;;;;5074512;28;20094;-86
2021/12/06 06:10:41;;;;;;;1.77;1.23;;;;;;;;;;5039832;28;20135;-82
2021/12/06 06:13:09;;;;;;;2.95;1.20;;;;;;;;;;5055924;28;20036;-79
2021/12/06 06:15:37;;;;;;;2.60;1.00;;;;;;;;;;5057800;28;20045;-79
2021/12/06 06:18:05;;;;;;;3.08;1.50;;;;;;;;;;5039168;28;20135;-80
2021/12/06 06:20:33;;;;;;;2.88;1.40;;;;;;;;;;5055991;28;20044;-78
2021/12/06 06:23:00;;;;;;;3.80;1.45;;;;;;;;;;5038776;28;20051;-82
2021/12/06 06:25:34;;;;;;;4.68;1.48;;;;;;;;;;5055564;28;20052;-80
2021/12/06 06:28:04;;;;;;;5.13;1.42;;;;;;;;;;5055847;28;20502;-80
2021/12/06 06:30:35;;;;;;;4.50;1.60;;;;;;;;;;5039010;28;20046;-78
2021/12/06 06:33:09;;;;;;;5.07;2.50;;;;;;;;;;5072381;28;20498;-81
2021/12/06 06:35:37;;;;;;;5.68;1.60;;;;;;;;;;5073212;28;20036;-81
2021/12/06 06:38:05;;;;;;;6.03;1.85;;;;;;;;;;5073428;28;20487;-80
2021/12/06 06:40:38;;;;;;;3.25;1.65;;;;;;;;;;5055573;28;20045;-79
2021/12/06 06:43:06;;;;;;;6.25;2.88;;;;;;;;;;5074156;28;20041;-81
2021/12/06 06:45:34;;;;;;;5.30;2.15;;;;;;;;;;5038727;28;20040;-79
2021/12/06 06:48:02;;;;;;;3.97;1.92;;;;;;;;;;5038115;28;20040;-81
2021/12/06 06:50:33;;;;;;;2.33;1.88;;;;;;;;;;5023371;28;20047;-80
2021/12/06 06:53:04;;;;;;;3.13;2.05;;;;;;;;;;5072929;28;20064;-81
2021/12/06 06:55:33;;;;;;;4.82;2.33;;;;;;;;;;5072763;28;20060;-80
2021/12/06 06:58:03;;;;;;;5.30;2.70;;;;;;;;;;5073024;28;20041;-81
2021/12/06 07:00:39;;;;;;;3.28;1.67;;;;;;;;;;5054585;28;20041;-80
2021/12/06 07:03:13;;;;;;;3.90;1.95;;;;;;;;;;5038507;28;20044;-81
2021/12/06 07:05:44;;;;;;;3.58;1.75;;;;;;;;;;5073127;28;20040;-79
2021/12/06 07:08:12;;;;;;;2.00;1.80;;;;;;;;;;5055008;28;20071;-81
2021/12/06 07:10:41;;;;;;;3.45;2.08;;;;;;;;;;5055189;28;20053;-80
2021/12/06 07:13:11;;;;;;;5.03;2.10;;;;;;;;;;5038340;28;20546;-79
2021/12/06 07:15:39;;;;;;;5.72;2.30;;;;;;;;;;5055424;28;20049;-80
2021/12/06 07:18:06;;;;;;;3.53;2.50;;;;;;;;;;5054586;28;20048;-80
2021/12/06 07:20:35;;;;;;;4.85;2.22;;;;;;;;;;5055760;28;20072;-77
2021/12/06 07:23:06;;;;;;;3.53;1.77;;;;;;;;;;5059004;28;20045;-79
2021/12/06 07:25:34;;;;;;;5.53;1.60;;;;;;;;;;5058484;28;20135;-79
2021/12/06 07:28:05;;;;;;;3.58;1.80;;;;;;;;;;5058814;28;20419;-78
2021/12/06 07:30:32;;;;;;;2.67;1.60;;;;;;;;;;5058955;28;20044;-80
2021/12/06 07:33:01;;;;;;;5.05;1.80;;;;;;;;;;5058711;28;20045;-77
2021/12/06 07:35:31;;;;;;;3.38;1.58;;;;;;;;;;5076905;28;20044;-80
2021/12/06 07:38:00;;;;;;;2.75;1.40;;;;;;;;;;5058599;28;20480;-80
2021/12/06 07:40:28;;;;;;;2.08;1.60;;;;;;;;;;5058986;28;20050;-80
2021/12/06 07:42:58;;;;;;;4.55;2.17;;;;;;;;;;5042584;28;20510;-80
2021/12/06 07:45:26;;;;;;;4.07;1.55;;;;;;;;;;5058752;28;20120;-80
2021/12/06 07:47:58;;;;;;;3.53;1.30;;;;;;;;;;5076361;28;20050;-80
2021/12/06 07:50:25;;;;;;;2.67;1.70;;;;;;;;;;5041711;28;20052;-80
2021/12/06 07:52:55;;;;;;;2.42;1.60;;;;;;;;;;5076677;28;20082;-81
2021/12/06 07:55:26;;;;;;;2.92;1.63;;;;;;;;;;5076182;28;20488;-80
2021/12/06 07:57:56;;;;;;;7.10;2.42;;;;;;;;;;5058587;28;20484;-80
2021/12/06 08:00:27;;;;;;;2.53;1.83;;;;;;;;;;5059207;28;20191;-77
2021/12/06 08:02:54;;;;;;;4.32;1.73;;;;;;;;;;5058399;28;20041;-80
2021/12/06 08:05:38;;;;;;;8.05;2.33;;;;;;;;;;5058393;28;20064;-77
2021/12/06 08:08:22;;;;;;;10.75;1.90;;;;;;;;;;5058325;28;20041;-80
2021/12/06 08:10:53;;;;;;;4.57;1.38;;;;;;;;;;5058727;28;20381;-80
2021/12/06 08:13:25;;;;;;;4.57;1.70;;;;;;;;;;5076302;28;20043;-76
2021/12/06 08:15:54;;;;;;;4.32;1.98;;;;;;;;;;5076157;28;20079;-82
2021/12/06 08:18:22;;;;;;;3.80;1.45;;;;;;;;;;5076437;28;20040;-80
2021/12/06 08:20:51;;;;;;;3.65;1.33;;;;;;;;;;5076258;28;20040;-80
2021/12/06 08:23:19;;;;;;;2.15;1.30;;;;;;;;;;5075562;28;20123;-77
2021/12/06 08:25:48;;;;;;;5.22;1.40;;;;;;;;;;5076035;28;20040;-77
2021/12/06 08:28:17;;;;;;;3.08;1.40;;;;;;;;;;5058108;28;20032;-80
2021/12/06 08:30:44;;;;;;;2.80;1.20;;;;;;;;;;5075988;28;20032;-77
2021/12/06 08:33:13;;;;;;;3.42;1.58;;;;;;;;;;5075298;28;20411;-79
2021/12/06 08:35:43;;;;;;;4.80;1.70;;;;;;;;;;5075731;28;20533;-76
2021/12/06 08:38:11;;;;;;;6.38;2.05;;;;;;;;;;5075419;28;20032;-80
2021/12/06 08:40:41;;;;;;;5.95;2.00;;;;;;;;;;5075854;28;20036;-79
2021/12/06 08:43:16;;;;;;;5.40;2.60;;;;;;;;;;5057726;28;20102;-80
2021/12/06 08:45:57;;;;;;;6.80;2.53;;;;;;;;;;5057927;28;20147;-80
2021/12/06 08:48:27;;;;;;;6.10;1.95;;;;;;;;;;5075403;28;20131;-80
2021/12/06 08:50:58;;;;;;;3.42;1.77;;;;;;;;;;5057876;28;20495;-80
2021/12/06 08:53:25;;;;;;;3.47;1.60;;;;;;;;;;5057161;28;20045;-79
2021/12/06 08:55:56;;;;;;;2.42;1.30;;;;;;;;;;5057376;28;20135;-80
2021/12/06 08:58:24;;;;;;;3.05;1.17;;;;;;;;;;5057672;28;20476;-79
2021/12/06 09:00:52;;;;;;;2.83;1.90;;;;;;;;;;5074851;28;20120;-77
2021/12/06 09:03:23;;;;;;;5.88;1.40;;;;;;;;;;5075141;28;20049;-80
2021/12/06 09:05:55;;;;;;;4.90;1.40;;;;;;;;;;5057479;28;20113;-80
2021/12/06 09:08:24;;;;;;;2.70;0.90;;;;;;;;;;5075125;28;20365;-77
2021/12/06 09:10:53;;;;;;;6.85;1.50;;;;;;;;;;5057238;28;20123;-77
2021/12/06 09:13:25;;;;;;;5.07;1.70;;;;;;;;;;5057081;28;20127;-77
2021/12/06 09:15:59;;;;;;;4.72;2.85;;;;;;;;;;5075247;28;20044;-80
2021/12/06 09:18:29;;;;;;;7.35;3.88;;;;;;;;;;5074966;28;20086;-81
2021/12/06 09:20:58;;;;;;;6.80;3.40;;;;;;;;;;5074720;28;20068;-81
2021/12/06 09:23:26;;;;;;;10.02;3.70;;;;;;;;;;5074529;28;20462;-81
2021/12/06 09:25:56;;;;;;;10.90;4.85;;;;;;;;;;5057240;28;20044;-81
2021/12/06 09:28:25;;;;;;;8.27;4.07;;;;;;;;;;5074502;28;20066;-80
2021/12/06 09:30:53;;;;;;;5.95;2.70;;;;;;;;;;5074988;28;20494;-78
2021/12/06 09:33:24;;;;;;;6.05;1.90;;;;;;;;;;5056637;28;20117;-81
2021/12/06 09:35:59;;;;;;;4.03;1.40;;;;;;;;;;5056759;28;20567;-81
2021/12/06 09:38:33;;;;;;;4.28;1.73;;;;;;;;;;5074424;28;20127;-82
2021/12/06 09:41:02;;;;;;;3.63;1.48;;;;;;;;;;5056384;28;20147;-82
2021/12/06 09:43:30;;;;;;;2.97;1.80;;;;;;;;;;5073981;28;20044;-82
2021/12/06 09:45:58;;;;;;;2.72;1.13;;;;;;;;;;5055952;28;20048;-81
2021/12/06 09:48:26;;;;;;;2.92;1.25;;;;;;;;;;5073951;28;20037;-79
2021/12/06 09:50:58;;;;;;;3.30;1.40;;;;;;;;;;5074166;28;20040;-81
2021/12/06 09:53:31;;;;;;;2.85;1.67;;;;;;;;;;5055840;28;20416;-78
2021/12/06 09:56:02;;;;;;;0.95;0.95;;;;;;;;;;5074374;28;20068;-81
2021/12/06 09:58:30;;;;;;;5.28;1.35;;;;;;;;;;5056305;28;20037;-83
2021/12/06 10:01:00;;;;;;;1.83;1.23;;;;;;;;;;5073654;28;20044;-79
2021/12/06 10:03:30;;;;;;;1.70;0.90;;;;;;;;;;5055905;28;20431;-79
2021/12/06 10:06:04;;;;;;;2.63;1.20;;;;;;;;;;5074279;28;20040;-82
2021/12/06 10:08:33;;;;;;;4.85;1.17;;;;;;;;;;5056530;28;20395;-81
2021/12/06 10:11:01;;;;;;;1.60;0.95;;;;;;;;;;5074291;28;20035;-79
2021/12/06 10:13:29;;;;;;;2.97;0.90;;;;;;;;;;5039108;28;20040;-79
2021/12/06 10:15:59;;;;;;;3.92;1.00;;;;;;;;;;5073758;28;20071;-80
2021/12/06 10:18:29;;;;;;;1.52;0.80;;;;;;;;;;5073810;28;20040;-79
2021/12/06 10:20:57;;;;;;;4.57;0.85;;;;;;;;;;5073767;28;20457;-83
2021/12/06 10:23:24;;;;;;;2.72;0.80;;;;;;;;;;5073369;28;20048;-79
2021/12/06 10:25:53;;;;;;;3.92;0.80;;;;;;;;;;5074125;28;20044;-82
2021/12/06 10:28:23;;;;;;;3.13;0.80;;;;;;;;;;5056168;28;20496;-80
2021/12/06 10:30:52;;;;;;;4.25;0.98;;;;;;;;;;5055390;28;20254;-81
2021/12/06 10:33:23;;;;;;;3.63;1.00;;;;;;;;;;5055633;28;20463;-79
2021/12/06 10:35:52;;;;;;;4.47;1.10;;;;;;;;;;5055459;28;20193;-79
2021/12/06 10:38:34;;;;;;;2.67;1.15;;;;;;;;;;5055890;28;20040;-80
2021/12/06 10:41:06;;;;;;;2.15;1.38;;;;;;;;;;5039113;28;20511;-80
2021/12/06 10:43:34;;;;;;;2.05;0.85;;;;;;;;;;5073533;28;20392;-78
2021/12/06 10:46:03;;;;;;;1.90;0.77;;;;;;;;;;5055510;28;20047;-79
2021/12/06 10:48:34;;;;;;;2.03;0.88;;;;;;;;;;5073238;28;20044;-82
2021/12/06 10:51:05;;;;;;;2.22;0.90;;;;;;;;;;5073058;28;20040;-81
2021/12/06 10:53:46;;;;;;;2.20;0.90;;;;;;;;;;5127795;22;20470;-79
2021/12/06 10:56:20;;;;;;;3.97;1.17;;;;;;;;;;5031488;28;20128;-80
2021/12/06 10:58:48;;;;;;;1.70;1.10;;;;;;;;;;5032355;28;20033;-82
2021/12/06 11:01:20;;;;;;;2.28;0.80;;;;;;;;;;5032297;28;20576;-80
2021/12/06 11:03:51;;;;;;;2.30;1.23;;;;;;;;;;5015316;28;20138;-80
2021/12/06 11:06:26;;;;;;;3.03;0.70;;;;;;;;;;5032768;28;20052;-79
2021/12/06 11:08:55;;;;;;;4.00;1.17;;;;;;;;;;5031503;28;20068;-79
2021/12/06 11:11:27;;;;;;;4.25;1.00;;;;;;;;;;5014713;28;20597;-80
2021/12/06 11:14:00;;;;;;;3.57;1.40;;;;;;;;;;5031302;28;20064;-79
2021/12/06 11:16:29;;;;;;;3.10;1.10;;;;;;;;;;5032763;28;20303;-79
2021/12/06 11:19:01;;;;;;;3.55;1.00;;;;;;;;;;5047676;28;20068;-80
2021/12/06 11:21:30;;;;;;;1.70;0.82;;;;;;;;;;5031251;28;20049;-83
2021/12/06 11:23:57;;;;;;;1.40;0.63;;;;;;;;;;5015138;28;20136;-82
2021/12/06 11:26:25;;;;;;;2.90;1.15;;;;;;;;;;5031481;28;20475;-80
2021/12/06 11:28:55;;;;;;;1.88;0.88;;;;;;;;;;5015164;28;20057;-79
2021/12/06 11:31:26;;;;;;;2.17;0.77;;;;;;;;;;5032679;28;20116;-82
2021/12/06 11:34:02;;;;;;;2.47;0.95;;;;;;;;;;5047775;28;20402;-83
2021/12/06 11:36:31;;;;;;;1.50;1.30;;;;;;;;;;5032307;28;20428;-81
2021/12/06 11:39:00;;;;;;;3.60;1.13;;;;;;;;;;5032456;28;20034;-80
2021/12/06 11:41:29;;;;;;;2.47;0.90;;;;;;;;;;5030956;28;20141;-78
2021/12/06 11:44:11;;;;;;;2.33;1.10;;;;;;;;;;5032534;28;20125;-82
2021/12/06 11:46:39;;;;;;;1.98;1.02;;;;;;;;;;5031284;28;20128;-79
2021/12/06 11:49:17;;;;;;;2.03;0.77;;;;;;;;;;5032033;28;20075;-78
2021/12/06 11:51:45;;;;;;;1.73;0.70;;;;;;;;;;5015274;28;20465;-83
2021/12/06 11:54:12;;;;;;;1.17;0.80;;;;;;;;;;5031153;28;20052;-79
2021/12/06 11:56:45;;;;;;;0.68;0.60;;;;;;;;;;5033247;28;20039;-80
2021/12/06 11:59:15;;;;;;;2.90;0.95;;;;;;;;;;5032238;28;20049;-82
2021/12/06 12:01:50;;;;;;;2.03;0.80;;;;;;;;;;5030843;28;20402;-79
2021/12/06 12:04:22;;;;;;;2.22;0.88;;;;;;;;;;5031187;28;20037;-81
2021/12/06 12:07:00;;;;;;;2.78;0.82;;;;;;;;;;5031141;28;20083;-77
2021/12/06 12:09:35;;;;;;;2.97;1.33;;;;;;;;;;5035751;28;20361;-79
2021/12/06 12:12:06;;;;;;;3.25;1.50;;;;;;;;;;5034826;28;20120;-79
2021/12/06 12:14:40;;;;;;;1.55;0.98;;;;;;;;;;5036365;28;20592;-79
2021/12/06 12:17:07;;;;;;;;;;;;;;;;;;5019173;28;20041;-77
2021/12/06 12:19:39;;;;;;;1.50;0.90;;;;;;;;;;5034476;28;20000;-76
2021/12/06 12:22:08;;;;;;;0.88;0.60;;;;;;;;;;5034529;28;20081;-77
2021/12/06 12:24:39;;;;;;;0.73;0.55;;;;;;;;;;5035637;28;20052;-78
2021/12/06 12:27:22;;;;;;;0.85;0.57;;;;;;;;;;5034723;28;20041;-79
2021/12/06 12:29:50;;;;;;;2.95;0.80;;;;;;;;;;5049104;28;20145;-81
2021/12/06 12:32:18;;;;;;;1.95;0.85;;;;;;;;;;5034131;28;20045;-78
2021/12/06 12:34:49;;;;;;;1.63;1.15;;;;;;;;;;5034470;28;20495;-79
2021/12/06 12:37:21;;;;;;;1.27;0.75;;;;;;;;;;5017975;28;20047;-78
2021/12/06 12:40:07;;;;;;;1.30;0.70;;;;;;;;;;5034617;28;20044;-78
2021/12/06 12:42:37;;;;;;;1.77;0.90;;;;;;;;;;5035653;28;20041;-82
2021/12/06 12:45:05;;;;;;;1.50;0.80;;;;;;;;;;5051135;28;20037;-79
2021/12/06 12:47:34;;;;;;;1.25;0.80;;;;;;;;;;5035095;28;20522;-82
2021/12/06 12:50:18;;;;;;;4.97;1.17;;;;;;;;;;5050854;28;20042;-82
2021/12/06 12:52:55;;;;;;;3.15;1.10;;;;;;;;;;5035147;28;20077;-79
2021/12/06 12:55:40;;;;;;;3.40;1.10;;;;;;;;;;5034359;28;20065;-79
2021/12/06 12:58:24;;;;;;;1.23;0.70;;;;;;;;;;5035971;28;20041;-78
2021/12/06 13:00:56;;;;;;;3.17;0.88;;;;;;;;;;5033770;28;20129;-80
2021/12/06 13:03:41;;;;;;;2.40;0.88;;;;;;;;;;5035243;28;20034;-79
2021/12/06 13:06:12;;;;;;;3.30;0.98;;;;;;;;;;5034236;28;20140;-81
2021/12/06 13:08:40;;;;;;;4.07;1.10;;;;;;;;;;5034920;28;20049;-81
2021/12/06 13:11:09;;;;;;;2.88;0.88;;;;;;;;;;5034122;28;20065;-80
2021/12/06 13:13:45;;;;;;;3.65;1.42;;;;;;;;;;5033734;28;20046;-85
2021/12/06 13:16:37;;;;;;;2.80;0.88;;;;;;;;;;5049515;28;20137;-79
2021/12/06 13:19:33;;;;;;;2.92;1.05;;;;;;;;;;5025639;28;20139;-80
2021/12/06 13:22:12;;;;;;;3.30;0.90;;;;;;;;;;5040779;28;20417;-78
2021/12/06 13:27:31;;;;;;;3.97;1.90;;;;;;;;;;5030733;28;20483;-81
2021/12/06 13:30:49;;;;;;;3.25;1.30;;;;;;;;;;5031726;28;20509;-81
2021/12/06 13:33:35;;;;;;;2.33;1.00;;;;;;;;;;4964193;28;20048;-80
2021/12/06 13:36:04;;;;;;;4.57;1.30;;;;;;;;;;5020737;28;20072;-79
2021/12/06 13:38:36;;;;;;;5.22;1.20;;;;;;;;;;4999235;28;20532;-80
2021/12/06 13:41:28;;;;;;;6.15;1.23;;;;;;;;;;5015673;28;20045;-78
2021/12/06 13:44:07;;;;;;;6.95;0.90;;;;;;;;;;4998271;28;20053;-81
2021/12/06 13:46:37;;;;;;;4.78;1.40;;;;;;;;;;5032368;28;20049;-80
2021/12/06 13:49:27;;;;;;;5.03;1.33;;;;;;;;;;5015617;28;20056;-80
2021/12/06 13:52:00;;;;;;;2.17;1.10;;;;;;;;;;5017708;28;20247;-80
2021/12/06 13:54:34;;;;;;;6.75;1.08;;;;;;;;;;5031588;28;20137;-80
2021/12/06 13:57:07;;;;;;;3.83;0.80;;;;;;;;;;5013692;28;20069;-78
2021/12/06 13:59:42;;;;;;;3.22;1.35;;;;;;;;;;5030492;28;20127;-78
2021/12/06 14:02:19;;;;;;;4.03;1.13;;;;;;;;;;4992783;28;20057;-80
2021/12/06 14:04:56;;;;;;;3.55;1.20;;;;;;;;;;5015536;28;20049;-79
2021/12/06 14:07:27;;;;;;;6.90;1.40;;;;;;;;;;5031081;28;20050;-80
2021/12/06 14:10:02;;;;;;;2.88;0.93;;;;;;;;;;5041677;28;20078;-79
2021/12/06 14:12:33;;;;;;;6.07;1.23;;;;;;;;;;5028530;28;20068;-82
2021/12/06 14:15:20;;;;;;;3.95;1.40;;;;;;;;;;5034346;28;20532;-82
2021/12/06 14:17:54;;;;;;;6.63;1.65;;;;;;;;;;5034890;28;20052;-80
2021/12/06 14:20:22;;;;;;;4.05;1.55;;;;;;;;;;5031957;28;20053;-81
2021/12/06 14:22:50;;;;;;;8.68;1.70;;;;;;;;;;5033073;28;20463;-81
2021/12/06 14:25:22;;;;;;;5.78;1.60;;;;;;;;;;5031784;28;20555;-80
2021/12/06 14:27:50;;;;;;;10.90;2.85;;;;;;;;;;5032020;28;20049;-81
2021/12/06 14:30:24;;;;;;;4.93;1.60;;;;;;;;;;5032866;28;20416;-81
2021/12/06 14:32:54;;;;;;;4.93;1.35;;;;;;;;;;5032052;28;20072;-83
2021/12/06 14:35:27;;;;;;;5.22;1.35;;;;;;;;;;5032170;28;20041;-82
2021/12/06 14:37:55;;;;;;;;;;;;;;;;;;5032217;28;20051;-81
2021/12/06 14:40:24;;;;;;;5.20;1.95;;;;;;;;;;5015948;28;19925;-82
2021/12/06 14:42:52;;;;;;;4.13;1.42;;;;;;;;;;5032011;28;20044;-82
2021/12/06 14:45:21;;;;;;;3.88;1.42;;;;;;;;;;5048338;28;20037;-81
2021/12/06 14:47:56;;;;;;;5.82;1.27;;;;;;;;;;5031784;28;20124;-80
2021/12/06 14:50:37;;;;;;;9.25;1.40;;;;;;;;;;5047547;28;20123;-82
2021/12/06 14:53:17;;;;;;;7.55;1.52;;;;;;;;;;5031541;28;20132;-80
2021/12/06 14:58:40;;;;;;;4.85;1.58;;;;;;;;;;5031658;28;20049;-80
2021/12/06 15:01:14;;;;;;;6.20;1.48;;;;;;;;;;5031829;28;20049;-79
2021/12/06 15:03:47;;;;;;;6.63;2.03;;;;;;;;;;5032443;28;20049;-82
2021/12/06 15:06:17;;;;;;;4.43;1.50;;;;;;;;;;5032130;28;20061;-80
2021/12/06 15:08:48;;;;;;;3.15;1.60;;;;;;;;;;5033215;28;20220;-82
2021/12/06 15:11:21;;;;;;;7.53;1.80;;;;;;;;;;5031882;28;20554;-81
2021/12/06 15:13:53;;;;;;;8.00;1.35;;;;;;;;;;5031423;28;20072;-82
2021/12/06 15:16:23;;;;;;;8.05;1.80;;;;;;;;;;5031315;28;20080;-80
2021/12/06 15:18:51;;;;;;;4.97;1.70;;;;;;;;;;5030945;28;20049;-80
2021/12/06 15:21:23;;;;;;;4.50;1.40;;;;;;;;;;5027483;28;20046;-80
2021/12/06 15:23:58;;;;;;;7.15;2.00;;;;;;;;;;4995458;28;20148;-81
2021/12/06 15:26:31;;;;;;;4.32;1.83;;;;;;;;;;5006175;28;20536;-82
2021/12/06 15:29:05;;;;;;;7.75;1.80;;;;;;;;;;5026312;28;20049;-83